Time;durP1;ratioP1;P1;durP2;ratioP2;P2;SDS_P1;SDS_P2;PMS_P1;PMS_P2;Temp;Humidity;BMP_temperature;BMP_pressure;BME280_temperature;BME280_humidity;BME280_pressure;Samples;Min_cycle;Max_cycle;Signal;HPM_P1;HPM_P2
2021/05/23 00:01:16;;;;;;;1.63;1.53;;;11.50;99.90;;;;;;4995057;28;20170;-80
2021/05/23 00:03:42;;;;;;;3.70;2.07;;;11.40;99.90;;;;;;5010502;28;20167;-80
2021/05/23 00:06:08;;;;;;;2.30;2.10;;;11.30;99.90;;;;;;4995893;28;20231;-81
2021/05/23 00:08:33;;;;;;;3.00;2.80;;;11.30;99.90;;;;;;4995941;28;20169;-81
2021/05/23 00:11:11;;;;;;;5.73;2.53;;;11.20;99.90;;;;;;4991992;28;20200;-83
2021/05/23 00:13:46;;;;;;;1.80;1.70;;;11.10;99.90;;;;;;4965354;28;20542;-85
2021/05/23 00:16:15;;;;;;;2.97;2.17;;;11.10;99.90;;;;;;4981904;28;20508;-82
2021/05/23 00:18:48;;;;;;;3.30;2.20;;;11.10;99.90;;;;;;4980525;28;20416;-84
2021/05/23 00:21:16;;;;;;;3.40;2.30;;;11.00;99.90;;;;;;4981878;28;20416;-83
2021/05/23 00:23:44;;;;;;;4.47;2.90;;;11.00;99.90;;;;;;4981501;28;20528;-82
2021/05/23 00:26:11;;;;;;;2.93;2.73;;;11.00;99.90;;;;;;4980196;28;20419;-83
2021/05/23 00:28:40;;;;;;;2.80;2.17;;;11.00;99.90;;;;;;4981077;28;20416;-82
2021/05/23 00:31:06;;;;;;;3.47;2.83;;;11.00;99.90;;;;;;4981087;28;20878;-84
2021/05/23 00:33:32;;;;;;;2.10;1.90;;;11.00;99.90;;;;;;4980206;28;20427;-82
2021/05/23 00:35:58;;;;;;;3.70;3.50;;;10.90;99.90;;;;;;4979980;28;20467;-82
2021/05/23 00:38:24;;;;;;;2.73;2.53;;;10.90;99.90;;;;;;4979709;28;20511;-82
2021/05/23 00:40:51;;;;;;;3.00;2.70;;;10.80;99.90;;;;;;4979362;28;20169;-84
2021/05/23 00:43:18;;;;;;;4.63;2.80;;;10.80;99.90;;;;;;4996377;28;20428;-83
2021/05/23 00:45:48;;;;;;;3.13;2.90;;;10.80;99.90;;;;;;4980904;28;20850;-83
2021/05/23 00:48:15;;;;;;;3.90;3.17;;;10.80;99.90;;;;;;4978909;28;20417;-83
2021/05/23 00:50:41;;;;;;;3.63;3.10;;;10.70;99.90;;;;;;4981458;28;20417;-82
2021/05/23 00:53:07;;;;;;;3.00;2.77;;;10.70;99.90;;;;;;4988032;28;20431;-83
2021/05/23 00:55:33;;;;;;;2.83;2.63;;;10.70;99.90;;;;;;4987993;28;20464;-83
2021/05/23 00:57:59;;;;;;;2.20;2.10;;;10.70;99.90;;;;;;4984357;28;20417;-83
2021/05/23 01:00:41;;;;;;;3.27;2.90;;;10.70;99.90;;;;;;4978819;28;20504;-83
2021/05/23 01:03:25;;;;;;;5.33;2.90;;;10.60;99.90;;;;;;4980375;28;20418;-83
2021/05/23 01:05:55;;;;;;;3.33;3.10;;;10.60;99.90;;;;;;4995893;28;20980;-83
2021/05/23 01:08:22;;;;;;;2.60;2.40;;;10.60;99.90;;;;;;4981141;28;20453;-83
2021/05/23 01:11:03;;;;;;;4.03;2.87;;;10.70;99.90;;;;;;4980191;28;20448;-84
2021/05/23 01:13:35;;;;;;;2.90;2.70;;;10.70;99.90;;;;;;4996626;28;20416;-83
2021/05/23 01:16:06;;;;;;;4.13;3.73;;;10.70;99.90;;;;;;4963357;28;20467;-84
2021/05/23 01:19:03;;;;;;;5.23;3.00;;;10.70;99.90;;;;;;4980857;28;20779;-83
2021/05/23 01:21:35;;;;;;;2.50;2.30;;;10.70;99.90;;;;;;4981832;28;20431;-83
2021/05/23 01:24:03;;;;;;;5.37;2.97;;;10.70;99.90;;;;;;4983076;28;20389;-83
2021/05/23 01:26:44;;;;;;;2.83;2.63;;;10.70;99.90;;;;;;4987873;28;20471;-82
2021/05/23 01:29:11;;;;;;;2.77;2.60;;;10.60;99.90;;;;;;5008091;28;20521;-83
2021/05/23 01:31:39;;;;;;;3.40;2.60;;;10.50;99.90;;;;;;4973191;28;20571;-82
2021/05/23 01:34:06;;;;;;;3.53;3.23;;;10.40;99.90;;;;;;4987813;28;20511;-83
2021/05/23 01:36:35;;;;;;;3.33;3.03;;;10.30;99.90;;;;;;4980955;28;20472;-81
2021/05/23 01:39:05;;;;;;;3.00;2.80;;;10.30;99.90;;;;;;4980115;28;20413;-82
2021/05/23 01:41:31;;;;;;;3.73;3.10;;;10.20;99.90;;;;;;4980474;28;20423;-83
2021/05/23 01:43:58;;;;;;;2.83;2.63;;;10.10;99.90;;;;;;4970115;28;20490;-82
2021/05/23 01:46:25;;;;;;;2.73;2.53;;;10.10;99.90;;;;;;5010308;28;20401;-80
2021/05/23 01:48:51;;;;;;;3.53;3.30;;;10.10;99.90;;;;;;4996556;28;20423;-83
2021/05/23 01:51:16;;;;;;;3.63;3.37;;;10.10;99.90;;;;;;4999718;28;20448;-82
2021/05/23 01:53:42;;;;;;;2.90;2.70;;;10.20;99.90;;;;;;4990802;28;20511;-84
2021/05/23 01:56:11;;;;;;;5.23;3.70;;;10.20;99.90;;;;;;4985020;28;20287;-83
2021/05/23 01:58:37;;;;;;;3.60;3.30;;;10.10;99.90;;;;;;4999544;28;20793;-83
2021/05/23 02:01:04;;;;;;;2.37;2.27;;;10.10;99.90;;;;;;4999087;28;20511;-84
2021/05/23 02:03:31;;;;;;;3.20;2.90;;;10.00;99.90;;;;;;4984645;28;20789;-84
2021/05/23 02:05:59;;;;;;;4.17;3.80;;;10.00;99.90;;;;;;4984100;28;20584;-84
2021/05/23 02:08:27;;;;;;;3.67;3.40;;;9.90;99.90;;;;;;4984238;28;20436;-84
2021/05/23 02:10:57;;;;;;;3.50;3.30;;;9.90;99.90;;;;;;4984824;28;20417;-83
2021/05/23 02:13:23;;;;;;;3.80;3.50;;;9.90;99.90;;;;;;4986345;28;20398;-84
2021/05/23 02:15:49;;;;;;;4.50;4.17;;;9.80;99.90;;;;;;4986966;28;20468;-83
2021/05/23 02:18:15;;;;;;;3.80;3.50;;;9.80;99.90;;;;;;4984771;28;20634;-83
2021/05/23 02:20:40;;;;;;;2.83;2.63;;;9.70;99.90;;;;;;4985711;28;20264;-83
2021/05/23 02:23:16;;;;;;;5.77;3.10;;;9.60;99.90;;;;;;4987258;28;20177;-83
2021/05/23 02:25:41;;;;;;;2.80;2.60;;;9.60;99.90;;;;;;4969989;28;20692;-81
2021/05/23 02:28:09;;;;;;;3.23;2.80;;;9.50;99.90;;;;;;4999100;28;20420;-83
2021/05/23 02:30:43;;;;;;;3.97;3.77;;;9.50;99.90;;;;;;4981953;28;20173;-84
2021/05/23 02:33:12;;;;;;;6.93;3.90;;;9.50;99.90;;;;;;4981945;28;20427;-83
2021/05/23 02:35:46;;;;;;;3.73;3.40;;;9.40;99.90;;;;;;4982087;28;20452;-82
2021/05/23 02:38:13;;;;;;;3.83;3.53;;;9.30;99.90;;;;;;4981983;28;20413;-82
2021/05/23 02:40:40;;;;;;;5.23;3.93;;;9.30;99.90;;;;;;4983652;28;20415;-81
2021/05/23 02:43:07;;;;;;;3.27;3.07;;;9.30;99.90;;;;;;4998789;28;20463;-82
2021/05/23 02:45:37;;;;;;;3.53;3.30;;;9.30;99.90;;;;;;4985082;28;20450;-82
2021/05/23 02:48:07;;;;;;;4.20;3.90;;;9.30;99.90;;;;;;4991818;28;20500;-84
2021/05/23 02:50:35;;;;;;;5.43;3.17;;;9.30;99.90;;;;;;4992132;28;20435;-82
2021/05/23 02:53:02;;;;;;;4.33;4.03;;;9.30;99.90;;;;;;4974397;28;20496;-83
2021/05/23 02:55:28;;;;;;;3.67;3.37;;;9.30;99.90;;;;;;4982677;28;20460;-83
2021/05/23 02:57:54;;;;;;;4.40;3.20;;;9.20;99.90;;;;;;4998473;28;20432;-83
2021/05/23 03:00:22;;;;;;;3.60;3.40;;;9.20;99.90;;;;;;4982086;28;20415;-83
2021/05/23 03:02:50;;;;;;;3.70;3.43;;;9.20;99.90;;;;;;4966129;28;20177;-83
2021/05/23 03:05:18;;;;;;;3.77;3.47;;;9.20;99.90;;;;;;4983278;28;20459;-83
2021/05/23 03:07:47;;;;;;;4.17;3.87;;;9.10;99.90;;;;;;4982110;28;20446;-83
2021/05/23 03:10:16;;;;;;;3.03;2.67;;;9.10;99.90;;;;;;4982152;28;20414;-83
2021/05/23 03:12:42;;;;;;;3.67;3.13;;;9.10;99.90;;;;;;4982433;28;20499;-83
2021/05/23 03:15:12;;;;;;;3.13;2.93;;;9.10;99.90;;;;;;4967475;28;20499;-84
2021/05/23 03:17:38;;;;;;;3.00;2.80;;;9.20;99.90;;;;;;4965926;28;20974;-84
2021/05/23 03:20:07;;;;;;;4.90;3.57;;;9.20;99.90;;;;;;4982712;28;20409;-84
2021/05/23 03:22:32;;;;;;;4.70;3.30;;;9.30;99.90;;;;;;4984521;28;20427;-84
2021/05/23 03:24:58;;;;;;;3.33;3.00;;;9.30;99.90;;;;;;4984962;28;20436;-84
2021/05/23 03:27:24;;;;;;;3.17;2.70;;;9.50;99.90;;;;;;4998361;28;20436;-80
2021/05/23 03:29:50;;;;;;;2.70;2.50;;;9.70;99.90;;;;;;4999421;28;20165;-80
2021/05/23 03:32:15;;;;;;;2.70;2.50;;;9.80;99.90;;;;;;4999183;28;20176;-80
2021/05/23 03:34:41;;;;;;;3.57;3.27;;;9.90;99.90;;;;;;4991310;28;20193;-83
2021/05/23 03:37:07;;;;;;;2.23;1.93;;;10.00;99.90;;;;;;4982807;28;20219;-81
2021/05/23 03:39:32;;;;;;;3.30;3.00;;;10.00;99.90;;;;;;4997929;28;20173;-84
2021/05/23 03:41:58;;;;;;;3.83;3.53;;;10.00;99.90;;;;;;4964963;28;20179;-84
2021/05/23 03:44:24;;;;;;;5.27;3.50;;;10.10;99.90;;;;;;4986227;28;20196;-84
2021/05/23 03:46:50;;;;;;;4.47;2.97;;;10.20;99.90;;;;;;4996732;28;20179;-82
2021/05/23 03:49:15;;;;;;;4.27;2.83;;;10.20;99.90;;;;;;4997609;28;20521;-83
2021/05/23 03:51:45;;;;;;;3.70;3.27;;;10.20;99.90;;;;;;4982137;28;20169;-82
2021/05/23 03:54:11;;;;;;;2.80;2.60;;;10.20;99.90;;;;;;4981027;28;20267;-83
2021/05/23 03:56:37;;;;;;;2.93;2.73;;;10.10;99.90;;;;;;4981256;28;20484;-84
2021/05/23 03:59:03;;;;;;;5.27;3.57;;;10.10;99.90;;;;;;4979981;28;20252;-82
2021/05/23 04:01:28;;;;;;;4.43;3.03;;;10.10;99.90;;;;;;4995913;28;20477;-84
2021/05/23 04:03:58;;;;;;;3.33;3.13;;;10.10;99.90;;;;;;4994792;28;20423;-84
2021/05/23 04:06:24;;;;;;;3.37;3.03;;;10.20;99.90;;;;;;4979524;28;20483;-84
2021/05/23 04:08:49;;;;;;;2.60;2.40;;;10.40;99.90;;;;;;4981984;28;20420;-84
2021/05/23 04:11:19;;;;;;;2.73;2.53;;;10.80;99.90;;;;;;4985111;28;20268;-84
2021/05/23 04:13:46;;;;;;;6.00;2.67;;;11.60;99.90;;;;;;4983977;28;20543;-84
2021/05/23 04:16:29;;;;;;;;;;;;;;;;;;;;;
2021/05/23 04:18:55;;;;;;;2.83;2.63;;;13.30;99.90;;;;;;4983516;28;20409;-84
2021/05/23 04:21:21;;;;;;;3.70;2.70;;;14.50;99.90;;;;;;4990909;28;20472;-81
2021/05/23 04:23:47;;;;;;;3.33;3.00;;;15.00;99.90;;;;;;4995050;28;20177;-84
2021/05/23 04:26:13;;;;;;;3.17;2.77;;;15.20;99.90;;;;;;4994660;28;20169;-82
2021/05/23 04:28:38;;;;;;;2.77;2.57;;;15.20;99.90;;;;;;4992127;28;20663;-84
2021/05/23 04:31:04;;;;;;;5.17;3.47;;;14.90;99.90;;;;;;4980023;28;20173;-84
2021/05/23 04:33:30;;;;;;;3.53;3.07;;;14.60;99.90;;;;;;4980890;28;20167;-81
2021/05/23 04:35:55;;;;;;;3.17;2.70;;;13.90;99.90;;;;;;4979467;28;20632;-86
2021/05/23 04:38:21;;;;;;;2.60;2.40;;;13.70;99.90;;;;;;4980061;28;20166;-83
2021/05/23 04:40:47;;;;;;;2.80;2.60;;;13.50;99.90;;;;;;4996486;28;20420;-84
2021/05/23 04:43:13;;;;;;;2.30;2.10;;;13.30;99.90;;;;;;4981830;28;20537;-84
2021/05/23 04:46:04;;;;;;;2.07;1.70;;;13.20;99.90;;;;;;4981213;28;20451;-84
2021/05/23 04:48:30;;;;;;;4.07;3.80;;;13.00;99.90;;;;;;4980541;28;20400;-83
2021/05/23 04:50:56;;;;;;;3.10;2.80;;;12.90;99.90;;;;;;4984664;28;20417;-85
2021/05/23 04:53:25;;;;;;;3.70;3.50;;;12.90;99.90;;;;;;4996171;28;20185;-83
2021/05/23 04:55:50;;;;;;;2.10;2.00;;;13.40;99.90;;;;;;4996630;28;20303;-83
2021/05/23 04:58:16;;;;;;;1.93;1.83;;;14.00;99.90;;;;;;4965666;28;20452;-84
2021/05/23 05:00:42;;;;;;;2.30;2.10;;;14.20;99.90;;;;;;4982137;28;20162;-84
2021/05/23 05:03:08;;;;;;;2.67;1.80;;;14.30;99.90;;;;;;4981380;28;20771;-84
2021/05/23 05:05:33;;;;;;;3.30;2.50;;;14.40;99.90;;;;;;4982399;28;20749;-84
2021/05/23 05:07:59;;;;;;;3.20;2.37;;;14.10;99.90;;;;;;4989875;28;20200;-83
2021/05/23 05:10:25;;;;;;;1.73;1.63;;;13.60;99.90;;;;;;4995092;28;20189;-79
2021/05/23 05:12:53;;;;;;;3.13;2.40;;;13.20;99.90;;;;;;5012119;28;20177;-81
2021/05/23 05:15:21;;;;;;;2.10;1.90;;;13.20;99.90;;;;;;4976220;28;20199;-83
2021/05/23 05:17:52;;;;;;;2.10;2.00;;;13.10;99.90;;;;;;4979218;28;20429;-83
2021/05/23 05:20:54;;;;;;;2.33;2.17;;;13.20;99.90;;;;;;4979389;28;20463;-83
2021/05/23 05:23:20;;;;;;;1.80;1.70;;;13.20;99.90;;;;;;4976086;28;20814;-83
2021/05/23 05:25:46;;;;;;;1.70;1.60;;;12.70;99.90;;;;;;4996270;28;20446;-84
2021/05/23 05:28:12;;;;;;;2.03;1.87;;;12.70;99.90;;;;;;4996198;28;20473;-83
2021/05/23 05:30:38;;;;;;;2.43;2.00;;;12.50;99.90;;;;;;4980751;28;20426;-83
2021/05/23 05:33:04;;;;;;;2.37;1.80;;;12.40;99.90;;;;;;4982451;28;20188;-82
2021/05/23 05:35:29;;;;;;;2.17;1.97;;;12.70;99.90;;;;;;4989572;28;20204;-85
2021/05/23 05:37:55;;;;;;;2.37;2.20;;;12.90;99.90;;;;;;4986535;28;20777;-84
2021/05/23 05:40:21;;;;;;;4.07;1.50;;;13.10;99.90;;;;;;4985030;28;20490;-84
2021/05/23 05:42:47;;;;;;;2.33;1.80;;;12.90;99.90;;;;;;4981964;28;20208;-82
2021/05/23 05:45:13;;;;;;;6.10;4.70;;;12.90;99.90;;;;;;4983379;28;20425;-82
2021/05/23 05:47:39;;;;;;;2.00;1.90;;;12.90;99.90;;;;;;4991295;28;20646;-80
2021/05/23 05:50:06;;;;;;;2.10;1.90;;;12.80;99.90;;;;;;4990665;28;20416;-82
2021/05/23 05:52:31;;;;;;;1.70;1.50;;;12.80;99.90;;;;;;4991215;28;20189;-84
2021/05/23 05:54:57;;;;;;;1.97;1.50;;;12.40;99.90;;;;;;4989757;28;20436;-83
2021/05/23 05:57:22;;;;;;;6.00;4.23;;;12.30;99.90;;;;;;4990006;28;20212;-82
2021/05/23 05:59:48;;;;;;;4.40;1.90;;;12.30;99.90;;;;;;4987762;28;20601;-82
2021/05/23 06:02:17;;;;;;;1.63;1.50;;;12.20;99.90;;;;;;4997309;28;20261;-84
2021/05/23 06:04:44;;;;;;;2.73;1.80;;;12.20;99.90;;;;;;4980371;28;20201;-84
2021/05/23 06:07:09;;;;;;;2.57;1.97;;;12.20;99.90;;;;;;4980503;28;20428;-84
2021/05/23 06:09:35;;;;;;;2.23;2.03;;;12.20;99.90;;;;;;4981614;28;20428;-84
2021/05/23 06:12:01;;;;;;;4.37;3.50;;;12.10;99.90;;;;;;4963653;28;20204;-83
2021/05/23 06:14:27;;;;;;;3.57;2.07;;;12.10;99.90;;;;;;4980231;28;20606;-84
2021/05/23 06:16:56;;;;;;;8.30;4.50;;;12.00;99.90;;;;;;4997139;28;20213;-86
2021/05/23 06:19:22;;;;;;;2.63;2.17;;;11.80;99.90;;;;;;4982083;28;20413;-83
2021/05/23 06:21:47;;;;;;;2.20;2.00;;;11.80;99.90;;;;;;4982134;28;20455;-83
2021/05/23 06:24:13;;;;;;;5.10;2.87;;;11.70;99.90;;;;;;4965532;28;20220;-83
2021/05/23 06:26:39;;;;;;;2.33;2.00;;;11.80;99.90;;;;;;4966624;28;20177;-81
2021/05/23 06:29:05;;;;;;;2.80;2.07;;;11.90;99.90;;;;;;4987313;28;20178;-82
2021/05/23 06:31:34;;;;;;;2.90;1.73;;;11.80;99.90;;;;;;4983916;28;20421;-84
2021/05/23 06:33:59;;;;;;;3.20;1.80;;;11.70;99.90;;;;;;4981772;28;20420;-83
2021/05/23 06:36:25;;;;;;;3.67;1.93;;;11.60;99.90;;;;;;4986677;28;20599;-84
2021/05/23 06:38:51;;;;;;;2.10;2.00;;;11.60;99.90;;;;;;4985013;28;20253;-85
2021/05/23 06:41:17;;;;;;;6.00;2.30;;;11.70;99.90;;;;;;4967563;28;20181;-83
2021/05/23 06:43:45;;;;;;;3.50;2.77;;;11.70;99.90;;;;;;4984705;28;20428;-84
2021/05/23 06:46:12;;;;;;;3.83;1.67;;;11.70;99.90;;;;;;4974916;28;20416;-83
2021/05/23 06:48:38;;;;;;;2.73;2.10;;;11.70;99.90;;;;;;4995129;28;20451;-80
2021/05/23 06:51:04;;;;;;;2.80;1.90;;;11.60;99.90;;;;;;5015319;28;20432;-83
2021/05/23 06:53:30;;;;;;;3.13;2.53;;;11.70;99.90;;;;;;4981334;28;20173;-80
2021/05/23 06:55:58;;;;;;;3.03;2.50;;;11.80;99.90;;;;;;5010057;28;20452;-85
2021/05/23 06:58:23;;;;;;;2.13;1.47;;;11.80;99.90;;;;;;5002547;28;20926;-84
2021/05/23 07:00:50;;;;;;;2.10;1.90;;;11.80;99.90;;;;;;4985814;28;20261;-83
2021/05/23 07:03:16;;;;;;;2.83;1.90;;;11.90;99.90;;;;;;5001928;28;20204;-84
2021/05/23 07:05:44;;;;;;;3.20;2.20;;;12.10;99.90;;;;;;4990115;28;20456;-82
2021/05/23 07:08:12;;;;;;;1.83;1.70;;;12.20;99.90;;;;;;5011512;28;20425;-82
2021/05/23 07:10:41;;;;;;;3.03;1.63;;;12.40;99.90;;;;;;4996218;28;20409;-82
2021/05/23 07:13:06;;;;;;;1.90;1.37;;;12.60;99.90;;;;;;4994358;28;20444;-82
2021/05/23 07:15:32;;;;;;;3.40;2.23;;;12.70;99.90;;;;;;4986149;28;20232;-82
2021/05/23 07:17:58;;;;;;;2.63;2.03;;;12.70;99.90;;;;;;4985828;28;20169;-83
2021/05/23 07:20:25;;;;;;;2.93;2.73;;;12.80;99.90;;;;;;4984750;28;20497;-83
2021/05/23 07:22:50;;;;;;;1.57;1.30;;;13.30;99.90;;;;;;4986244;28;20832;-83
2021/05/23 07:25:16;;;;;;;8.03;1.50;;;13.70;99.90;;;;;;4986496;28;20433;-83
2021/05/23 07:27:44;;;;;;;2.50;2.30;;;14.30;99.90;;;;;;4988686;28;20170;-87
2021/05/23 07:30:14;;;;;;;3.73;1.50;;;14.90;99.90;;;;;;4989477;28;20412;-82
2021/05/23 07:32:40;;;;;;;4.00;3.30;;;15.70;99.90;;;;;;4988143;28;20912;-85
2021/05/23 07:35:10;;;;;;;1.90;1.70;;;15.70;99.90;;;;;;4991728;28;20542;-83
2021/05/23 07:37:48;;;;;;;3.47;3.17;;;15.80;99.90;;;;;;5011265;28;20414;-83
2021/05/23 07:40:25;;;;;;;3.30;2.70;;;16.20;99.90;;;;;;4979552;28;20424;-84
2021/05/23 07:42:51;;;;;;;3.83;1.80;;;16.50;99.90;;;;;;4978087;28;20955;-83
2021/05/23 07:45:17;;;;;;;1.60;1.50;;;16.40;99.90;;;;;;4994563;28;20602;-83
2021/05/23 07:47:43;;;;;;;1.37;1.27;;;16.80;99.90;;;;;;4989029;28;20173;-84
2021/05/23 07:50:09;;;;;;;1.77;1.30;;;17.00;99.90;;;;;;4988556;28;20988;-83
2021/05/23 07:52:35;;;;;;;2.50;1.97;;;16.80;99.90;;;;;;4991903;28;20200;-83
2021/05/23 07:55:05;;;;;;;3.30;1.40;;;16.20;99.90;;;;;;4995598;28;20440;-83
2021/05/23 07:57:31;;;;;;;8.03;1.40;;;16.50;99.90;;;;;;5011665;28;20472;-84
2021/05/23 07:59:56;;;;;;;1.83;1.47;;;16.80;99.90;;;;;;4979983;28;20463;-84
2021/05/23 08:02:22;;;;;;;1.93;1.60;;;16.50;99.90;;;;;;4995550;28;20492;-84
2021/05/23 08:04:48;;;;;;;4.20;2.10;;;16.50;99.90;;;;;;4997901;28;20196;-84
2021/05/23 08:07:16;;;;;;;3.90;2.47;;;16.90;99.90;;;;;;4978301;28;20200;-83
2021/05/23 08:09:41;;;;;;;3.07;1.63;;;17.10;99.90;;;;;;4994950;28;20170;-83
2021/05/23 08:12:07;;;;;;;2.20;1.67;;;16.70;99.90;;;;;;4996379;28;20416;-83
2021/05/23 08:14:33;;;;;;;2.03;1.80;;;16.20;99.90;;;;;;4995751;28;20215;-82
2021/05/23 08:16:59;;;;;;;2.20;1.77;;;15.90;99.90;;;;;;4997003;28;20459;-83
2021/05/23 08:19:25;;;;;;;2.27;1.73;;;16.00;99.90;;;;;;4994597;28;20184;-82
2021/05/23 08:21:50;;;;;;;2.57;1.97;;;15.90;99.90;;;;;;4995511;28;20412;-84
2021/05/23 08:24:16;;;;;;;4.83;1.83;;;16.00;99.90;;;;;;4978919;28;20181;-84
2021/05/23 08:26:42;;;;;;;2.60;1.80;;;16.10;99.90;;;;;;4991679;28;20196;-83
2021/05/23 08:29:08;;;;;;;3.60;1.87;;;15.80;99.90;;;;;;4973756;28;20426;-84
2021/05/23 08:31:34;;;;;;;2.80;2.60;;;15.80;99.90;;;;;;4994776;28;20416;-81
2021/05/23 08:34:01;;;;;;;3.20;3.00;;;15.70;99.90;;;;;;4994664;28;20244;-79
2021/05/23 08:36:29;;;;;;;1.33;1.20;;;15.90;99.90;;;;;;4980257;28;20471;-80
2021/05/23 08:38:58;;;;;;;2.43;1.33;;;15.70;99.90;;;;;;4980984;28;20491;-83
2021/05/23 08:41:23;;;;;;;2.00;1.80;;;15.40;99.90;;;;;;4997057;28;20426;-83
2021/05/23 08:43:50;;;;;;;1.60;1.50;;;15.40;99.90;;;;;;4998121;28;20232;-81
2021/05/23 08:46:17;;;;;;;3.53;2.60;;;15.70;99.90;;;;;;4997463;28;20240;-83
2021/05/23 08:48:43;;;;;;;3.20;2.17;;;15.90;99.90;;;;;;4997736;28;20451;-83
2021/05/23 08:51:09;;;;;;;3.27;2.10;;;16.30;99.90;;;;;;4981096;28;20420;-83
2021/05/23 08:53:38;;;;;;;3.80;3.40;;;16.10;99.90;;;;;;4998188;28;20411;-85
2021/05/23 08:56:04;;;;;;;1.90;1.47;;;16.20;99.90;;;;;;4997005;28;20478;-83
2021/05/23 08:58:39;;;;;;;2.50;1.23;;;16.10;99.90;;;;;;4980132;28;20416;-80
2021/05/23 09:01:04;;;;;;;3.37;2.27;;;16.00;99.90;;;;;;4976999;28;20423;-83
2021/05/23 09:03:30;;;;;;;3.30;2.00;;;16.50;99.90;;;;;;4987632;28;20424;-85
2021/05/23 09:28:59;;;;;;;1.37;1.27;;;16.80;99.90;;;;;;4966245;29;20456;-86
2021/05/23 11:42:09;;;;;;;1.20;1.10;;;17.40;99.90;;;;;;4928063;29;20549;-87
2021/05/23 11:45:35;;;;;;;2.40;1.57;;;17.40;99.90;;;;;;4917713;29;20437;-82
2021/05/23 11:48:40;;;;;;;1.77;1.50;;;17.30;99.90;;;;;;4915659;29;20484;-87
2021/05/23 12:14:57;;;;;;;;;;;;;;;;;;;;;
2021/05/23 12:17:58;;;;;;;2.93;1.90;;;17.90;99.90;;;;;;4916320;28;20421;-87
2021/05/23 12:20:37;;;;;;;1.50;1.40;;;18.00;99.90;;;;;;4952206;29;20524;-87
2021/05/23 12:23:10;;;;;;;1.20;1.10;;;17.30;99.90;;;;;;4970381;29;20382;-88
2021/05/23 12:28:56;;;;;;;1.20;1.10;;;17.00;99.90;;;;;;4969918;28;20402;-88
2021/05/23 12:31:26;;;;;;;1.30;1.20;;;16.20;99.90;;;;;;4967964;29;20432;-87
2021/05/23 12:33:59;;;;;;;1.30;1.20;;;16.10;99.90;;;;;;4951118;29;20412;-87
2021/05/23 12:36:27;;;;;;;1.90;1.57;;;16.10;99.90;;;;;;4966975;29;20523;-87
2021/05/23 12:39:08;;;;;;;1.40;1.30;;;16.10;99.90;;;;;;4951611;29;20603;-87
2021/05/23 12:41:40;;;;;;;2.23;1.63;;;16.10;99.90;;;;;;4983145;28;20427;-87
2021/05/23 12:44:24;;;;;;;1.73;1.63;;;16.20;99.90;;;;;;4967464;29;20587;-87
2021/05/23 12:46:50;;;;;;;1.80;1.70;;;16.60;99.90;;;;;;4949949;29;20445;-88
2021/05/23 12:49:27;;;;;;;1.27;1.17;;;17.10;99.90;;;;;;4970238;29;20402;-87
2021/05/23 12:51:59;;;;;;;1.30;1.20;;;17.30;99.90;;;;;;4955207;29;20477;-85
2021/05/23 12:54:27;;;;;;;1.80;1.70;;;17.10;99.90;;;;;;4984511;28;20524;-85
2021/05/23 12:56:57;;;;;;;3.17;2.90;;;17.40;99.90;;;;;;4967233;29;20501;-87
2021/05/23 12:59:26;;;;;;;1.87;1.43;;;17.70;99.90;;;;;;4949994;29;20417;-86
2021/05/23 13:01:52;;;;;;;1.20;1.10;;;17.60;99.90;;;;;;4967926;28;20886;-87
2021/05/23 13:04:22;;;;;;;2.73;2.53;;;17.30;99.90;;;;;;4969018;29;20418;-88
2021/05/23 13:06:55;;;;;;;1.10;1.00;;;17.20;99.90;;;;;;4965787;29;20560;-85
2021/05/23 13:09:44;;;;;;;2.80;1.50;;;16.90;99.90;;;;;;4975155;29;20432;-87
2021/05/23 13:12:15;;;;;;;2.00;1.80;;;17.20;99.90;;;;;;4970111;29;20421;-86
2021/05/23 13:14:58;;;;;;;3.00;2.20;;;17.70;99.90;;;;;;4954192;29;20438;-88
2021/05/23 13:17:31;;;;;;;1.43;1.20;;;17.90;99.90;;;;;;4966627;29;20472;-87
2021/05/23 13:19:58;;;;;;;1.47;1.37;;;18.00;99.90;;;;;;4951465;29;20480;-88
2021/05/23 13:22:28;;;;;;;1.60;1.50;;;18.30;99.90;;;;;;4982835;28;20456;-87
2021/05/23 13:24:57;;;;;;;2.50;2.30;;;18.10;99.90;;;;;;4967414;29;20412;-87
2021/05/23 13:27:30;;;;;;;1.57;1.47;;;18.00;99.90;;;;;;4969367;29;20930;-88
2021/05/23 13:29:58;;;;;;;1.20;1.10;;;18.00;99.90;;;;;;4968492;29;20911;-87
2021/05/23 13:32:24;;;;;;;1.37;1.20;;;18.10;99.90;;;;;;4982714;28;20533;-87
2021/05/23 13:35:06;;;;;;;2.63;1.17;;;18.00;99.90;;;;;;4964081;29;20437;-86
2021/05/23 13:37:58;;;;;;;1.13;0.90;;;18.00;99.90;;;;;;4950638;29;20457;-87
2021/05/23 13:41:24;;;;;;;1.77;1.00;;;17.90;99.90;;;;;;4984875;28;20436;-88
2021/05/23 13:44:39;;;;;;;1.73;1.23;;;17.60;99.90;;;;;;4969829;28;20393;-87
2021/05/23 13:51:00;;;;;;;;;;;;;;;;;;;;;
2021/05/23 13:53:34;;;;;;;2.70;1.63;;;18.20;99.90;;;;;;4974782;29;20417;-87
2021/05/23 13:56:00;;;;;;;2.40;2.30;;;18.10;99.90;;;;;;4994361;28;20460;-88
2021/05/23 13:58:26;;;;;;;1.73;1.47;;;18.10;99.90;;;;;;4982715;28;20429;-87
2021/05/23 14:00:56;;;;;;;2.00;1.90;;;18.00;99.90;;;;;;4981639;28;20398;-87
2021/05/23 14:03:27;;;;;;;2.57;2.37;;;18.10;99.90;;;;;;4965851;29;20419;-86
2021/05/23 14:05:59;;;;;;;1.70;1.60;;;18.60;99.90;;;;;;4969069;29;20468;-88
2021/05/23 14:08:27;;;;;;;2.50;1.50;;;18.70;99.90;;;;;;4969502;29;20401;-87
2021/05/23 14:10:56;;;;;;;2.37;2.10;;;18.50;99.90;;;;;;4968380;29;20422;-86
2021/05/23 14:13:22;;;;;;;1.40;1.30;;;18.30;99.90;;;;;;4968080;28;20429;-87
2021/05/23 14:15:49;;;;;;;1.27;1.17;;;18.10;99.90;;;;;;4952414;29;20465;-87
2021/05/23 14:18:15;;;;;;;1.60;1.50;;;17.90;99.90;;;;;;4970875;28;20414;-87
2021/05/23 14:20:41;;;;;;;3.10;2.90;;;17.70;99.90;;;;;;4972452;29;20552;-86
2021/05/23 14:23:15;;;;;;;2.27;2.10;;;17.60;99.90;;;;;;4968306;29;20417;-87
2021/05/23 14:25:44;;;;;;;2.00;1.90;;;17.80;99.90;;;;;;4969031;28;20432;-86
2021/05/23 14:28:35;;;;;;;1.97;1.83;;;17.80;99.90;;;;;;4969266;29;20492;-88
2021/05/23 14:31:03;;;;;;;1.90;1.70;;;17.70;99.90;;;;;;4969686;29;20390;-87
2021/05/23 14:33:32;;;;;;;1.77;1.67;;;17.40;99.90;;;;;;4968108;29;20397;-87
2021/05/23 14:35:58;;;;;;;2.53;2.10;;;17.10;99.90;;;;;;4973157;29;20461;-87
2021/05/23 14:38:26;;;;;;;3.00;2.80;;;17.10;99.90;;;;;;4968689;29;20452;-87
2021/05/23 14:40:52;;;;;;;3.77;2.70;;;17.10;99.90;;;;;;4976703;29;20497;-87
2021/05/23 14:43:18;;;;;;;1.50;1.40;;;17.00;99.90;;;;;;4975816;29;20417;-87
2021/05/23 14:45:47;;;;;;;3.37;3.07;;;17.00;99.90;;;;;;4969132;29;20796;-87
2021/05/23 14:48:16;;;;;;;1.77;1.67;;;17.00;99.90;;;;;;4967831;29;20424;-87
2021/05/23 14:50:42;;;;;;;2.40;2.20;;;17.10;99.90;;;;;;4967068;29;20182;-86
2021/05/23 14:53:10;;;;;;;2.43;2.03;;;16.90;99.90;;;;;;4951807;29;20417;-86
2021/05/23 14:55:37;;;;;;;1.97;1.83;;;16.90;99.90;;;;;;4950260;29;20445;-87
2021/05/23 14:58:03;;;;;;;2.03;1.93;;;17.10;99.90;;;;;;4984263;28;20272;-87
2021/05/23 15:00:29;;;;;;;8.40;7.70;;;17.50;99.90;;;;;;4968769;29;20417;-88
2021/05/23 15:03:00;;;;;;;3.67;3.03;;;17.70;99.90;;;;;;4968188;29;20174;-85
2021/05/23 15:05:44;;;;;;;4.73;4.30;;;17.90;99.90;;;;;;4984871;23;20231;-85
2021/05/23 15:08:16;;;;;;;4.40;3.80;;;17.80;99.90;;;;;;4990199;28;20382;-85
2021/05/23 15:10:50;;;;;;;5.40;4.90;;;17.60;99.90;;;;;;4989858;28;20401;-85
2021/05/23 15:14:05;;;;;;;2.70;2.50;;;17.50;99.90;;;;;;5006109;28;20420;-85
2021/05/23 15:16:15;;;;;;;3.77;3.47;;;17.40;99.90;;;;;;4984532;28;20467;-85
2021/05/23 15:19:05;;;;;;;2.40;2.27;;;17.10;99.90;;;;;;4972761;28;20420;-85
2021/05/23 15:22:30;;;;;;;2.33;2.13;;;16.60;99.90;;;;;;4989276;28;20420;-85
2021/05/23 15:25:02;;;;;;;2.60;1.97;;;16.50;99.90;;;;;;4941531;28;20423;-84
2021/05/23 15:30:37;;;;;;;3.50;1.93;;;16.20;99.90;;;;;;4988503;28;20415;-84
2021/05/23 15:33:09;;;;;;;1.87;1.60;;;14.80;99.90;;;;;;4974674;28;20489;-86
2021/05/23 15:36:12;;;;;;;3.60;2.60;;;13.70;99.90;;;;;;4989576;28;20527;-86
2021/05/23 15:39:00;;;;;;;4.13;2.53;;;13.10;99.90;;;;;;4983297;28;20809;-85
2021/05/23 15:41:56;;;;;;;3.00;2.20;;;12.80;99.90;;;;;;4987427;28;20405;-85
2021/05/23 15:44:37;;;;;;;3.33;2.90;;;12.80;99.90;;;;;;4986171;28;20489;-85
2021/05/23 15:47:43;;;;;;;;;;;;;;;;;;;;;
2021/05/23 15:51:25;;;;;;;5.73;2.97;;;12.60;99.90;;;;;;4985091;28;20467;-86
2021/05/23 15:54:13;;;;;;;3.37;2.40;;;12.90;99.90;;;;;;4986158;28;20501;-84
2021/05/23 15:56:52;;;;;;;4.57;2.20;;;13.30;99.90;;;;;;4989468;28;20480;-84
2021/05/23 16:00:11;;;;;;;;;;;;;;;;;;;;;
2021/05/23 16:09:48;;;;;;;4.13;2.57;;;14.90;99.90;;;;;;4948184;29;20523;-86
2021/05/23 16:12:32;;;;;;;;;;;;;;;;;;;;;
2021/05/23 16:55:57;;;;;;;3.10;2.80;;;14.50;99.90;;;;;;1277419;26;20489;-85
2021/05/23 16:58:55;;;;;;;3.10;2.87;;;14.40;99.90;;;;;;4951965;29;20454;-84
2021/05/23 17:01:24;;;;;;;8.57;7.77;;;14.20;99.90;;;;;;4947317;29;20452;-84
2021/05/23 17:04:01;;;;;;;5.80;4.30;;;14.10;99.90;;;;;;4975177;29;20430;-84
2021/05/23 17:06:43;;;;;;;6.27;5.63;;;14.20;99.90;;;;;;4974232;28;20436;-84
2021/05/23 17:09:33;;;;;;;3.80;3.50;;;14.40;99.90;;;;;;4983954;28;20449;-85